Time;durP1;ratioP1;P1;durP2;ratioP2;P2;SDS_P1;SDS_P2;PMS_P1;PMS_P2;Temp;Humidity;BMP_temperature;BMP_pressure;BME280_temperature;BME280_humidity;BME280_pressure;Samples;Min_cycle;Max_cycle;Signal;HPM_P1;HPM_P2
2023/09/02 00:04:42;;;;;;;14.77;11.65;;;;;;;15.36;76.99;100628.03;20928295;28;20493;-78
2023/09/02 00:14:45;;;;;;;16.75;12.30;;;;;;;15.72;75.46;100622.31;20927126;28;20211;-79
2023/09/02 00:24:46;;;;;;;20.23;12.98;;;;;;;15.68;75.78;100612.91;20920881;28;20290;-78
2023/09/02 00:34:49;;;;;;;16.35;10.88;;;;;;;15.44;77.77;100615.75;20911594;28;20704;-78
2023/09/02 00:44:51;;;;;;;19.77;12.90;;;;;;;15.56;76.44;100632.78;20920345;28;20215;-78
2023/09/02 00:54:55;;;;;;;15.10;11.30;;;;;;;15.38;77.63;100620.00;20931148;28;20505;-79
2023/09/02 01:04:59;;;;;;;17.83;13.27;;;;;;;16.07;74.60;100627.50;20928355;28;20195;-78
2023/09/02 01:15:02;;;;;;;22.15;13.68;;;;;;;15.74;75.92;100645.50;20932380;28;20219;-79
2023/09/02 01:25:25;;;;;;;20.70;14.98;;;;;;;15.70;76.69;100624.72;20945770;28;20280;-78
2023/09/02 01:35:37;;;;;;;21.75;14.75;;;;;;;16.00;74.54;100642.28;20913673;28;20232;-79
2023/09/02 01:45:40;;;;;;;22.00;14.65;;;;;;;15.78;76.02;100640.81;20929133;28;20232;-79
2023/09/02 01:55:43;;;;;;;20.75;14.88;;;;;;;15.65;76.35;100653.31;20964645;28;20215;-78
2023/09/02 02:05:51;;;;;;;23.00;13.18;;;;;;;15.38;77.52;100642.69;20941527;28;20197;-78
2023/09/02 02:15:56;;;;;;;20.30;13.27;;;;;;;15.73;75.18;100652.34;20930229;28;20279;-78
2023/09/02 02:26:01;;;;;;;17.23;11.27;;;;;;;15.12;78.31;100645.84;20946241;28;20282;-78
2023/09/02 02:36:04;;;;;;;16.38;12.23;;;;;;;15.24;78.09;100636.53;20924981;28;20301;-78
2023/09/02 02:46:06;;;;;;;15.73;11.80;;;;;;;15.79;74.98;100642.47;20930398;28;20227;-79
2023/09/02 02:56:09;;;;;;;18.15;12.50;;;;;;;15.84;75.18;100643.41;20950092;28;20219;-79
2023/09/02 03:06:16;;;;;;;15.20;10.45;;;;;;;15.26;78.36;100646.34;20931862;28;20210;-80
2023/09/02 03:16:19;;;;;;;18.45;11.77;;;;;;;15.29;78.29;100644.81;20934621;28;20220;-79
2023/09/02 03:26:24;;;;;;;13.40;10.70;;;;;;;15.42;76.03;100644.47;20931118;28;20206;-78
2023/09/02 03:36:27;;;;;;;16.80;11.68;;;;;;;15.53;76.57;100644.00;20923317;28;20234;-79
2023/09/02 03:46:29;;;;;;;17.55;11.27;;;;;;;15.25;77.43;100652.38;20936224;28;20225;-80
2023/09/02 03:56:36;;;;;;;15.40;10.38;;;;;;;15.92;75.09;100653.78;20929770;28;20482;-79
2023/09/02 04:06:38;;;;;;;18.63;10.90;;;;;;;15.73;75.78;100660.03;20942308;28;20509;-79
2023/09/02 04:16:41;;;;;;;15.57;11.25;;;;;;;16.13;74.50;100654.44;20935286;28;20215;-79
2023/09/02 04:26:43;;;;;;;14.68;10.43;;;;;;;15.88;75.03;100650.00;20924511;28;20196;-79
2023/09/02 04:36:46;;;;;;;15.50;10.68;;;;;;;15.17;78.06;100670.31;20904522;28;20219;-80
2023/09/02 04:46:47;;;;;;;16.70;11.73;;;;;;;15.87;75.07;100686.06;20938836;28;20321;-80
2023/09/02 04:56:50;;;;;;;15.18;10.15;;;;;;;15.77;75.41;100690.22;20952832;28;20226;-79
2023/09/02 05:06:52;;;;;;;12.98;9.32;;;;;;;15.44;76.90;100698.00;20903369;28;20202;-80
2023/09/02 05:16:55;;;;;;;15.07;9.95;;;;;;;15.84;74.76;100700.16;20929543;28;20215;-79
2023/09/02 05:26:57;;;;;;;12.98;8.70;;;;;;;16.20;73.64;100700.09;20888203;28;20196;-78
2023/09/02 05:37:02;;;;;;;14.05;9.50;;;;;;;15.82;76.30;100711.03;20884617;28;20227;-80
2023/09/02 05:47:04;;;;;;;14.82;8.98;;;;;;;16.06;74.85;100719.53;20908888;28;20228;-79
2023/09/02 05:57:07;;;;;;;19.35;9.10;;;;;;;16.17;74.30;100730.03;20919225;28;20223;-79
2023/09/02 06:07:09;;;;;;;13.48;8.60;;;;;;;16.28;74.74;100738.88;20926491;28;20201;-81
2023/09/02 06:17:12;;;;;;;11.45;7.57;;;;;;;16.02;75.04;100741.28;20917154;28;20212;-78
2023/09/02 06:27:14;;;;;;;8.60;7.20;;;;;;;16.11;75.84;100739.13;20916390;28;20210;-79
2023/09/02 06:37:17;;;;;;;11.07;6.90;;;;;;;16.99;72.12;100755.28;20899317;28;20539;-79
2023/09/02 06:47:21;;;;;;;11.75;6.93;;;;;;;16.53;75.76;100759.56;20900944;28;20299;-80
2023/09/02 06:57:24;;;;;;;7.25;5.50;;;;;;;16.43;74.98;100772.22;20935337;28;20524;-81
2023/09/02 07:07:26;;;;;;;7.32;5.78;;;;;;;17.23;70.92;100785.63;20915294;28;20206;-81
2023/09/02 07:17:31;;;;;;;8.25;5.82;;;;;;;17.61;71.88;100802.13;20927268;28;20223;-80
2023/09/02 07:27:33;;;;;;;6.97;4.85;;;;;;;17.36;73.73;100812.81;20910639;28;20199;-79
2023/09/02 07:37:36;;;;;;;7.47;5.70;;;;;;;17.56;73.15;100828.00;20908458;28;20617;-78
2023/09/02 07:47:38;;;;;;;13.70;5.50;;;;;;;17.73;71.63;100839.03;20895940;28;20242;-78
2023/09/02 07:57:42;;;;;;;7.47;4.75;;;;;;;17.48;75.40;100868.84;20902234;28;20219;-79
2023/09/02 08:07:44;;;;;;;5.38;4.13;;;;;;;18.06;70.47;100877.75;20896267;28;20208;-79
2023/09/02 08:17:48;;;;;;;7.88;4.10;;;;;;;18.40;70.60;100899.81;20875291;28;20216;-79
2023/09/02 08:27:50;;;;;;;2.45;1.77;;;;;;;18.04;69.05;100905.78;20891267;28;20212;-79
2023/09/02 08:37:53;;;;;;;8.90;2.88;;;;;;;18.94;66.07;100907.66;20903309;28;20228;-80
2023/09/02 08:48:03;;;;;;;1.45;1.35;;;;;;;18.58;68.60;100908.78;20901116;28;20250;-86
2023/09/02 08:58:07;;;;;;;9.07;2.63;;;;;;;18.55;68.55;100909.56;20893023;28;20219;-89
2023/09/02 09:08:10;;;;;;;2.13;1.30;;;;;;;18.82;66.35;100902.09;20909102;28;20216;-81
2023/09/02 09:18:16;;;;;;;2.88;2.00;;;;;;;19.32;67.26;100904.06;20902744;28;20220;-81
2023/09/02 09:28:18;;;;;;;3.70;2.30;;;;;;;19.81;64.02;100900.56;20903136;28;20223;-80
2023/09/02 09:38:22;;;;;;;3.05;1.70;;;;;;;19.19;64.39;100900.50;20894533;28;20221;-82
2023/09/02 09:48:24;;;;;;;4.40;1.38;;;;;;;20.36;63.11;100908.56;20901934;28;20852;-82
2023/09/02 09:58:27;;;;;;;3.42;1.38;;;;;;;19.65;63.39;100909.22;20906035;28;20219;-79
2023/09/02 10:08:29;;;;;;;1.95;0.93;;;;;;;19.87;62.64;100914.16;20909560;28;20196;-78
2023/09/02 10:18:32;;;;;;;36.20;9.93;;;;;;;20.14;61.75;100919.97;20885919;28;20240;-83
2023/09/02 10:28:38;;;;;;;1.15;0.70;;;;;;;20.57;64.21;100921.59;20916302;28;20651;-82
2023/09/02 10:38:42;;;;;;;90.25;20.15;;;;;;;20.15;61.78;100942.47;20914143;28;20228;-81
2023/09/02 10:48:46;;;;;;;6.55;2.22;;;;;;;19.76;61.35;100953.09;20911661;28;20224;-81
2023/09/02 10:58:49;;;;;;;2.45;0.90;;;;;;;20.56;60.14;100937.09;20911995;28;20255;-78
2023/09/02 11:08:51;;;;;;;2.90;0.98;;;;;;;20.46;59.34;100944.25;20884416;28;20218;-78
2023/09/02 11:18:55;;;;;;;1.38;0.50;;;;;;;20.76;59.16;100952.97;20897086;28;20215;-77
2023/09/02 11:28:56;;;;;;;0.57;0.50;;;;;;;20.68;58.68;100963.44;20904994;28;20223;-79
2023/09/02 11:39:00;;;;;;;1.48;0.80;;;;;;;21.18;59.78;100967.13;20904177;28;20220;-78
2023/09/02 11:49:01;;;;;;;2.75;1.25;;;;;;;21.39;60.58;100973.16;20874172;28;20224;-79
2023/09/02 11:59:05;;;;;;;3.15;1.17;;;;;;;20.95;60.76;100975.75;20874083;28;20799;-80
2023/09/02 12:09:07;;;;;;;2.25;1.02;;;;;;;21.00;59.04;100961.13;20906045;28;20204;-78
2023/09/02 12:19:10;;;;;;;3.28;1.10;;;;;;;21.32;57.53;100952.19;20892857;28;20318;-79
2023/09/02 12:29:15;;;;;;;0.60;0.60;;;;;;;21.57;56.04;100964.78;20878789;28;20224;-82
2023/09/02 12:39:25;;;;;;;0.75;0.63;;;;;;;21.52;59.60;100975.78;20902293;28;20235;-82
2023/09/02 12:49:27;;;;;;;0.63;0.50;;;;;;;21.47;55.61;100990.44;20906394;28;20234;-84
2023/09/02 12:59:30;;;;;;;1.52;0.60;;;;;;;21.38;57.60;101000.16;20908254;28;20216;-83
2023/09/02 13:09:32;;;;;;;1.63;0.98;;;;;;;21.65;57.25;100985.78;20906967;28;20211;-82
2023/09/02 13:19:36;;;;;;;1.58;1.40;;;;;;;21.54;57.10;100991.38;20913789;28;20225;-82
2023/09/02 13:29:37;;;;;;;2.35;1.55;;;;;;;21.91;56.84;100993.50;20918060;28;20512;-81
2023/09/02 13:39:41;;;;;;;2.17;1.98;;;;;;;21.72;56.47;101000.19;20925856;28;20224;-82
2023/09/02 13:49:43;;;;;;;3.20;2.90;;;;;;;21.96;58.08;100996.81;20909542;28;20195;-83
2023/09/02 13:59:46;;;;;;;3.88;3.58;;;;;;;21.97;57.31;101003.38;20906973;28;20216;-82
2023/09/02 14:09:48;;;;;;;4.32;3.88;;;;;;;21.59;56.51;101011.06;20917899;28;20204;-83
2023/09/02 14:19:51;;;;;;;20.90;18.77;;;;;;;21.13;61.18;101026.72;20890697;28;20223;-81
2023/09/02 14:29:53;;;;;;;28.30;24.63;;;;;;;20.43;65.02;101021.38;20888384;28;20231;-81
2023/09/02 14:39:56;;;;;;;26.85;24.02;;;;;;;20.73;63.23;101026.06;20892101;28;20234;-81
2023/09/02 14:49:58;;;;;;;26.40;23.58;;;;;;;20.76;61.95;101024.47;20892602;28;20363;-85
2023/09/02 15:00:03;;;;;;;23.67;21.27;;;;;;;20.88;61.34;101032.84;20888900;28;20566;-83
2023/09/02 15:10:06;;;;;;;28.70;22.20;;;;;;;21.41;59.81;101022.28;20901521;28;20207;-83
2023/09/02 15:20:17;;;;;;;24.02;21.65;;;;;;;21.02;60.88;101020.81;20914507;28;20230;-79
2023/09/02 15:30:19;;;;;;;22.85;20.65;;;;;;;20.84;61.47;101042.56;20906382;28;20211;-77
2023/09/02 15:40:27;;;;;;;23.67;21.33;;;;;;;20.65;61.66;101041.41;20913900;28;20281;-82
2023/09/02 15:50:29;;;;;;;22.80;19.88;;;;;;;21.74;60.20;101029.28;20907746;28;20223;-83
2023/09/02 16:00:33;;;;;;;21.10;19.00;;;;;;;20.92;60.82;101038.63;20913027;28;20242;-82
2023/09/02 16:10:35;;;;;;;24.17;20.88;;;;;;;21.02;61.54;101049.44;20912848;28;20199;-79
2023/09/02 16:20:40;;;;;;;21.88;19.65;;;;;;;21.21;61.47;101066.53;20921838;28;20265;-86
2023/09/02 16:30:43;;;;;;;21.73;18.70;;;;;;;21.13;63.88;101061.88;20913294;28;20243;-84
2023/09/02 16:40:47;;;;;;;20.95;17.00;;;;;;;20.57;64.74;101061.69;20919054;28;20282;-80
2023/09/02 16:50:54;;;;;;;16.35;14.57;;;;;;;21.20;59.05;101078.38;20907597;28;20245;-87
2023/09/02 17:01:03;;;;;;;12.57;11.27;;;;;;;20.96;59.50;101076.72;20901660;28;20259;-79
2023/09/02 17:11:09;;;;;;;13.73;10.88;;;;;;;21.18;57.75;101066.44;20897228;28;20254;-82
2023/09/02 17:21:15;;;;;;;12.23;11.02;;;;;;;20.97;60.73;101081.22;20889173;28;20258;-81
2023/09/02 17:31:23;;;;;;;17.08;10.90;;;;;;;20.55;63.08;101082.06;20877774;28;20303;-81
2023/09/02 17:41:26;;;;;;;14.85;10.93;;;;;;;20.46;63.60;101090.06;20880659;28;20227;-81
2023/09/02 17:51:28;;;;;;;11.88;10.32;;;;;;;20.20;64.88;101104.22;20878395;28;20197;-80
2023/09/02 18:01:31;;;;;;;15.07;10.90;;;;;;;19.98;65.62;101120.91;20899662;28;20226;-80
2023/09/02 18:11:33;;;;;;;12.27;10.80;;;;;;;19.99;65.48;101145.44;20893439;28;20566;-80
2023/09/02 18:21:36;;;;;;;13.30;10.98;;;;;;;19.66;66.99;101171.53;20907027;28;20215;-80
2023/09/02 18:31:38;;;;;;;13.60;10.50;;;;;;;19.36;67.31;101173.22;20895230;28;20617;-80
2023/09/02 18:41:44;;;;;;;13.65;9.80;;;;;;;19.23;67.43;101186.72;20902722;28;20249;-81
2023/09/02 18:51:45;;;;;;;13.30;8.93;;;;;;;18.89;68.72;101198.84;20890933;28;21087;-81
2023/09/02 19:01:49;;;;;;;13.40;9.10;;;;;;;18.85;68.61;101209.31;20888088;28;20227;-83
2023/09/02 19:11:50;;;;;;;9.55;8.63;;;;;;;18.48;69.89;101209.44;20901776;28;20605;-80
2023/09/02 19:21:53;;;;;;;11.55;9.02;;;;;;;18.51;69.83;101222.97;20901131;28;20238;-82
2023/09/02 19:31:56;;;;;;;10.63;8.98;;;;;;;18.36;69.82;101229.44;20890786;28;20211;-80
2023/09/02 19:41:59;;;;;;;11.02;8.90;;;;;;;18.15;71.09;101220.25;20898434;28;20517;-79
2023/09/02 19:52:00;;;;;;;12.93;9.90;;;;;;;18.18;70.25;101236.63;20898687;28;20202;-79
2023/09/02 20:02:04;;;;;;;11.88;9.82;;;;;;;18.05;70.60;101235.00;20882636;28;20228;-80
2023/09/02 20:12:06;;;;;;;15.10;12.68;;;;;;;17.99;71.13;101247.81;20880705;28;20209;-80
2023/09/02 20:22:09;;;;;;;16.45;13.45;;;;;;;17.55;72.31;101247.53;20889024;28;20315;-80
2023/09/02 20:32:11;;;;;;;15.77;14.10;;;;;;;17.41;72.40;101253.56;20891875;28;20224;-79
2023/09/02 20:42:14;;;;;;;19.67;15.90;;;;;;;17.45;72.01;101282.13;20881823;28;20242;-80
2023/09/02 20:52:16;;;;;;;19.08;15.13;;;;;;;17.22;72.78;101295.94;20877126;28;20486;-78
2023/09/02 21:02:19;;;;;;;16.63;14.50;;;;;;;17.15;72.93;101293.63;20889753;28;20222;-80
2023/09/02 21:12:21;;;;;;;19.58;14.23;;;;;;;17.07;72.84;101317.31;20878426;28;20210;-80
2023/09/02 21:22:24;;;;;;;21.73;16.15;;;;;;;17.23;72.03;101314.69;20881733;28;20334;-80
2023/09/02 21:32:26;;;;;;;21.25;16.25;;;;;;;17.01;73.10;101327.28;20880537;28;20230;-81
2023/09/02 21:42:30;;;;;;;18.92;16.65;;;;;;;16.82;73.62;101338.28;20935320;28;20222;-81
2023/09/02 21:52:32;;;;;;;17.98;14.80;;;;;;;16.70;73.74;101349.59;20931102;28;20626;-79
2023/09/02 22:02:36;;;;;;;21.55;15.30;;;;;;;16.67;73.55;101353.13;20944810;28;20215;-80
2023/09/02 22:12:37;;;;;;;20.40;16.90;;;;;;;16.85;72.66;101348.97;20943826;28;20195;-81
2023/09/02 22:22:40;;;;;;;23.05;17.33;;;;;;;17.01;72.67;101352.03;20910159;28;20265;-82
2023/09/02 22:32:42;;;;;;;23.33;19.15;;;;;;;16.45;74.46;101368.47;20924325;28;20219;-79
2023/09/02 22:42:46;;;;;;;26.15;18.52;;;;;;;16.78;72.29;101382.81;20949835;28;20238;-81
2023/09/02 22:52:47;;;;;;;25.02;20.60;;;;;;;16.42;74.58;101384.19;20927042;28;20214;-80
2023/09/02 23:02:50;;;;;;;28.00;22.15;;;;;;;16.39;75.33;101393.38;20922279;28;20651;-81
2023/09/02 23:12:52;;;;;;;22.25;18.83;;;;;;;16.38;73.90;101397.41;20938696;28;20191;-79
2023/09/02 23:22:56;;;;;;;26.05;19.67;;;;;;;16.04;74.77;101397.59;20954425;28;20227;-80
2023/09/02 23:32:58;;;;;;;27.13;21.60;;;;;;;16.33;73.65;101400.47;20933963;28;20261;-81
2023/09/02 23:43:01;;;;;;;28.80;22.20;;;;;;;16.06;74.58;101413.13;20921420;28;20219;-82
2023/09/02 23:53:03;;;;;;;26.38;19.48;;;;;;;15.73;74.76;101397.81;20931979;28;20283;-80
